sensor_id;sensor_type;location;lat;lon;timestamp;pressure;altitude;pressure_sealevel;temperature
64470;BMP280;50854;48.538;14.352;2022-08-11T01:46:45;94191.59;;;10.70
64470;BMP280;50854;48.538;14.352;2022-08-11T01:47:58;94189.44;;;10.63
64470;BMP280;50854;48.538;14.352;2022-08-11T01:50:16;94190.09;;;10.69
64470;BMP280;50854;48.538;14.352;2022-08-11T01:51:52;94188.09;;;10.75
64470;BMP280;50854;48.538;14.352;2022-08-11T01:54:28;94189.66;;;10.89
64470;BMP280;50854;48.538;14.352;2022-08-11T01:55:42;94189.59;;;10.95
64470;BMP280;50854;48.538;14.352;2022-08-11T01:58:22;94187.00;;;10.83
64470;BMP280;50854;48.538;14.352;2022-08-11T01:59:31;94184.03;;;10.87
64470;BMP280;50854;48.538;14.352;2022-08-11T02:01:01;94180.75;;;10.94
64470;BMP280;50854;48.538;14.352;2022-08-11T02:02:15;94181.25;;;10.68
64470;BMP280;50854;48.538;14.352;2022-08-11T02:03:42;94176.69;;;10.57
64470;BMP280;50854;48.538;14.352;2022-08-11T02:04:58;94175.03;;;10.54
64470;BMP280;50854;48.538;14.352;2022-08-11T02:06:19;94178.84;;;10.65
64470;BMP280;50854;48.538;14.352;2022-08-11T02:07:54;94177.59;;;10.66
64470;BMP280;50854;48.538;14.352;2022-08-11T02:09:03;94171.19;;;10.69
64470;BMP280;50854;48.538;14.352;2022-08-11T02:10:40;94166.47;;;10.75
64470;BMP280;50854;48.538;14.352;2022-08-11T02:12:00;94173.66;;;10.67
64470;BMP280;50854;48.538;14.352;2022-08-11T02:13:16;94168.25;;;10.67
64470;BMP280;50854;48.538;14.352;2022-08-11T02:14:27;94169.72;;;10.68
64470;BMP280;50854;48.538;14.352;2022-08-11T02:15:37;94163.31;;;10.71
64470;BMP280;50854;48.538;14.352;2022-08-11T02:18:19;94168.00;;;10.70
64470;BMP280;50854;48.538;14.352;2022-08-11T02:21:29;94164.22;;;10.79
64470;BMP280;50854;48.538;14.352;2022-08-11T02:23:01;94158.00;;;10.84
64470;BMP280;50854;48.538;14.352;2022-08-11T02:24:27;94161.19;;;10.88
64470;BMP280;50854;48.538;14.352;2022-08-11T02:25:37;94157.19;;;10.89
64470;BMP280;50854;48.538;14.352;2022-08-11T02:26:45;94160.16;;;10.91
64470;BMP280;50854;48.538;14.352;2022-08-11T02:28:01;94161.41;;;10.90
64470;BMP280;50854;48.538;14.352;2022-08-11T02:30:13;94158.75;;;10.84
64470;BMP280;50854;48.538;14.352;2022-08-11T02:38:31;94152.50;;;10.95
64470;BMP280;50854;48.538;14.352;2022-08-11T02:39:42;94154.97;;;10.93
64470;BMP280;50854;48.538;14.352;2022-08-11T02:42:05;94149.56;;;10.93
64470;BMP280;50854;48.538;14.352;2022-08-11T02:46:19;94149.13;;;10.65
64470;BMP280;50854;48.538;14.352;2022-08-11T02:49:32;94148.31;;;10.45
64470;BMP280;50854;48.538;14.352;2022-08-11T02:55:26;94144.38;;;10.46
64470;BMP280;50854;48.538;14.352;2022-08-11T02:57:50;94143.09;;;10.47
64470;BMP280;50854;48.538;14.352;2022-08-11T03:00:25;94140.44;;;9.87
64470;BMP280;50854;48.538;14.352;2022-08-11T03:02:00;94141.84;;;9.94
64470;BMP280;50854;48.538;14.352;2022-08-11T03:03:22;94144.66;;;9.77
64470;BMP280;50854;48.538;14.352;2022-08-11T03:04:46;94143.13;;;9.87
64470;BMP280;50854;48.538;14.352;2022-08-11T03:07:13;94142.78;;;9.96
64470;BMP280;50854;48.538;14.352;2022-08-11T03:10:12;94143.88;;;10.18
64470;BMP280;50854;48.538;14.352;2022-08-11T03:11:54;94151.66;;;10.27
64470;BMP280;50854;48.538;14.352;2022-08-11T03:13:20;94146.53;;;10.23
64470;BMP280;50854;48.538;14.352;2022-08-11T03:15:01;94146.28;;;10.21
64470;BMP280;50854;48.538;14.352;2022-08-11T03:16:51;94144.34;;;10.16
64470;BMP280;50854;48.538;14.352;2022-08-11T03:19:21;94150.75;;;10.19
64470;BMP280;50854;48.538;14.352;2022-08-11T03:21:41;94149.72;;;10.22
64470;BMP280;50854;48.538;14.352;2022-08-11T03:24:17;94153.91;;;10.23
64470;BMP280;50854;48.538;14.352;2022-08-11T03:28:13;94143.63;;;10.16
64470;BMP280;50854;48.538;14.352;2022-08-11T03:30:01;94148.28;;;10.15
64470;BMP280;50854;48.538;14.352;2022-08-11T03:31:09;94151.97;;;10.18
64470;BMP280;50854;48.538;14.352;2022-08-11T03:32:36;94149.50;;;10.20
64470;BMP280;50854;48.538;14.352;2022-08-11T03:33:49;94153.94;;;10.17
64470;BMP280;50854;48.538;14.352;2022-08-11T03:35:04;94152.22;;;10.20
64470;BMP280;50854;48.538;14.352;2022-08-11T03:36:24;94145.78;;;10.23
64470;BMP280;50854;48.538;14.352;2022-08-11T03:40:19;94157.00;;;10.02
64470;BMP280;50854;48.538;14.352;2022-08-11T03:42:12;94157.47;;;10.07
64470;BMP280;50854;48.538;14.352;2022-08-11T03:44:03;94155.47;;;10.13
64470;BMP280;50854;48.538;14.352;2022-08-11T03:46:09;94153.28;;;10.06
64470;BMP280;50854;48.538;14.352;2022-08-11T03:48:21;94150.66;;;9.94
64470;BMP280;50854;48.538;14.352;2022-08-11T03:49:32;94150.69;;;9.89
64470;BMP280;50854;48.538;14.352;2022-08-11T03:50:53;94151.22;;;9.87
64470;BMP280;50854;48.538;14.352;2022-08-11T03:54:53;94153.53;;;10.08
64470;BMP280;50854;48.538;14.352;2022-08-11T04:11:50;94150.75;;;10.19
64470;BMP280;50854;48.538;14.352;2022-08-11T04:16:46;94147.41;;;10.37
64470;BMP280;50854;48.538;14.352;2022-08-11T04:21:00;94139.84;;;10.30
64470;BMP280;50854;48.538;14.352;2022-08-11T04:23:23;94146.22;;;10.32
64470;BMP280;50854;48.538;14.352;2022-08-11T04:28:54;94156.56;;;10.58
64470;BMP280;50854;48.538;14.352;2022-08-11T04:31:42;94152.00;;;10.42
64470;BMP280;50854;48.538;14.352;2022-08-11T04:45:19;94153.44;;;11.78
64470;BMP280;50854;48.538;14.352;2022-08-11T04:56:15;94156.13;;;13.22
64470;BMP280;50854;48.538;14.352;2022-08-11T04:58:00;94155.06;;;13.93
64470;BMP280;50854;48.538;14.352;2022-08-11T04:59:42;94159.16;;;14.49
64470;BMP280;50854;48.538;14.352;2022-08-11T05:07:29;94161.84;;;16.87
64470;BMP280;50854;48.538;14.352;2022-08-11T05:09:00;94170.88;;;17.44
64470;BMP280;50854;48.538;14.352;2022-08-11T05:13:08;94164.44;;;18.14
64470;BMP280;50854;48.538;14.352;2022-08-11T05:14:33;94168.63;;;18.33
64470;BMP280;50854;48.538;14.352;2022-08-11T05:15:59;94170.59;;;18.74
64470;BMP280;50854;48.538;14.352;2022-08-11T05:17:33;94172.84;;;19.20
64470;BMP280;50854;48.538;14.352;2022-08-11T05:18:54;94170.03;;;19.37
64470;BMP280;50854;48.538;14.352;2022-08-11T05:20:14;94145.53;;;19.66
64470;BMP280;50854;48.538;14.352;2022-08-11T05:21:34;94152.00;;;19.98
64470;BMP280;50854;48.538;14.352;2022-08-11T05:22:54;94154.09;;;20.26
64470;BMP280;50854;48.538;14.352;2022-08-11T05:24:19;94152.50;;;20.33
64470;BMP280;50854;48.538;14.352;2022-08-11T05:25:45;94149.34;;;20.46
64470;BMP280;50854;48.538;14.352;2022-08-11T05:27:07;94149.38;;;20.65
64470;BMP280;50854;48.538;14.352;2022-08-11T05:28:33;94151.22;;;20.72
64470;BMP280;50854;48.538;14.352;2022-08-11T05:31:30;94144.38;;;21.21
64470;BMP280;50854;48.538;14.352;2022-08-11T05:33:02;94144.72;;;21.56
64470;BMP280;50854;48.538;14.352;2022-08-11T05:34:27;94147.16;;;21.72
64470;BMP280;50854;48.538;14.352;2022-08-11T05:35:47;94153.38;;;21.72
64470;BMP280;50854;48.538;14.352;2022-08-11T05:36:51;94150.88;;;21.76
64470;BMP280;50854;48.538;14.352;2022-08-11T05:37:54;94162.22;;;21.92
64470;BMP280;50854;48.538;14.352;2022-08-11T05:39:47;94150.84;;;22.07
64470;BMP280;50854;48.538;14.352;2022-08-11T05:41:10;94131.59;;;22.28
64470;BMP280;50854;48.538;14.352;2022-08-11T05:42:31;94130.28;;;22.51
64470;BMP280;50854;48.538;14.352;2022-08-11T05:43:51;94122.44;;;22.69
64470;BMP280;50854;48.538;14.352;2022-08-11T05:45:14;94133.53;;;22.59
64470;BMP280;50854;48.538;14.352;2022-08-11T05:46:40;94134.75;;;23.00
64470;BMP280;50854;48.538;14.352;2022-08-11T05:48:01;94126.13;;;22.94
64470;BMP280;50854;48.538;14.352;2022-08-11T05:49:21;94133.59;;;23.04
64470;BMP280;50854;48.538;14.352;2022-08-11T05:50:41;94121.22;;;23.05
64470;BMP280;50854;48.538;14.352;2022-08-11T05:52:02;94128.66;;;23.02
64470;BMP280;50854;48.538;14.352;2022-08-11T05:53:21;94120.50;;;23.04
64470;BMP280;50854;48.538;14.352;2022-08-11T05:54:41;94112.84;;;23.14
64470;BMP280;50854;48.538;14.352;2022-08-11T05:56:04;94110.09;;;23.03
64470;BMP280;50854;48.538;14.352;2022-08-11T05:57:28;94127.06;;;22.87
64470;BMP280;50854;48.538;14.352;2022-08-11T05:58:39;94131.88;;;22.98
64470;BMP280;50854;48.538;14.352;2022-08-11T05:59:41;94122.09;;;23.19
64470;BMP280;50854;48.538;14.352;2022-08-11T06:00:44;94122.47;;;23.25
64470;BMP280;50854;48.538;14.352;2022-08-11T06:01:45;94122.00;;;23.40
64470;BMP280;50854;48.538;14.352;2022-08-11T06:02:55;94141.06;;;23.24
64470;BMP280;50854;48.538;14.352;2022-08-11T06:03:59;94114.69;;;23.45
64470;BMP280;50854;48.538;14.352;2022-08-11T06:05:14;94113.72;;;23.63
64470;BMP280;50854;48.538;14.352;2022-08-11T06:06:15;94112.88;;;23.84
64470;BMP280;50854;48.538;14.352;2022-08-11T06:07:15;94111.16;;;24.02
64470;BMP280;50854;48.538;14.352;2022-08-11T06:08:17;94098.91;;;23.94
64470;BMP280;50854;48.538;14.352;2022-08-11T06:10:38;94124.16;;;23.88
64470;BMP280;50854;48.538;14.352;2022-08-11T06:11:41;94117.16;;;23.99
64470;BMP280;50854;48.538;14.352;2022-08-11T06:12:42;94151.25;;;23.57
64470;BMP280;50854;48.538;14.352;2022-08-11T06:13:45;94113.47;;;23.83
64470;BMP280;50854;48.538;14.352;2022-08-11T06:14:50;94116.22;;;24.06
64470;BMP280;50854;48.538;14.352;2022-08-11T06:15:53;94133.94;;;24.26
64470;BMP280;50854;48.538;14.352;2022-08-11T06:16:58;94111.31;;;24.41
64470;BMP280;50854;48.538;14.352;2022-08-11T06:17:59;94111.13;;;24.51
64470;BMP280;50854;48.538;14.352;2022-08-11T06:19:03;94124.34;;;24.53
64470;BMP280;50854;48.538;14.352;2022-08-11T06:20:06;94126.00;;;24.83
64470;BMP280;50854;48.538;14.352;2022-08-11T06:21:11;94105.09;;;24.80
64470;BMP280;50854;48.538;14.352;2022-08-11T06:22:12;94097.31;;;25.15
64470;BMP280;50854;48.538;14.352;2022-08-11T06:23:20;94102.09;;;25.01
64470;BMP280;50854;48.538;14.352;2022-08-11T06:24:24;94111.50;;;24.96
64470;BMP280;50854;48.538;14.352;2022-08-11T06:25:32;94130.44;;;24.88
64470;BMP280;50854;48.538;14.352;2022-08-11T06:26:34;94118.34;;;24.95
64470;BMP280;50854;48.538;14.352;2022-08-11T06:27:37;94110.81;;;25.09
64470;BMP280;50854;48.538;14.352;2022-08-11T06:28:40;94129.34;;;24.81
64470;BMP280;50854;48.538;14.352;2022-08-11T06:29:48;94125.88;;;25.06
64470;BMP280;50854;48.538;14.352;2022-08-11T06:30:49;94132.06;;;25.32
64470;BMP280;50854;48.538;14.352;2022-08-11T06:31:57;94120.97;;;25.18
64470;BMP280;50854;48.538;14.352;2022-08-11T06:32:59;94126.03;;;25.36
64470;BMP280;50854;48.538;14.352;2022-08-11T06:34:31;94111.28;;;25.72
64470;BMP280;50854;48.538;14.352;2022-08-11T06:37:34;94104.06;;;26.08
64470;BMP280;50854;48.538;14.352;2022-08-11T06:38:52;94081.56;;;26.16
64470;BMP280;50854;48.538;14.352;2022-08-11T06:40:29;94101.56;;;26.14
64470;BMP280;50854;48.538;14.352;2022-08-11T06:41:44;94095.97;;;26.42
64470;BMP280;50854;48.538;14.352;2022-08-11T06:43:22;94102.28;;;26.74
64470;BMP280;50854;48.538;14.352;2022-08-11T06:44:31;94102.47;;;26.62
64470;BMP280;50854;48.538;14.352;2022-08-11T06:46:52;94093.00;;;26.83
64470;BMP280;50854;48.538;14.352;2022-08-11T06:47:55;94092.47;;;27.18
64470;BMP280;50854;48.538;14.352;2022-08-11T06:49:01;94089.59;;;27.31
64470;BMP280;50854;48.538;14.352;2022-08-11T06:50:04;94092.75;;;27.08
64470;BMP280;50854;48.538;14.352;2022-08-11T06:51:26;94098.22;;;27.06
64470;BMP280;50854;48.538;14.352;2022-08-11T06:52:35;94085.31;;;27.28
64470;BMP280;50854;48.538;14.352;2022-08-11T06:53:42;94088.06;;;27.60
64470;BMP280;50854;48.538;14.352;2022-08-11T06:54:49;94057.81;;;28.01
64470;BMP280;50854;48.538;14.352;2022-08-11T06:55:57;94070.75;;;28.12
64470;BMP280;50854;48.538;14.352;2022-08-11T06:57:17;94092.50;;;28.18
64470;BMP280;50854;48.538;14.352;2022-08-11T06:58:39;94105.75;;;28.02
64470;BMP280;50854;48.538;14.352;2022-08-11T06:59:59;94078.97;;;28.26
64470;BMP280;50854;48.538;14.352;2022-08-11T07:04:06;94071.38;;;28.84
64470;BMP280;50854;48.538;14.352;2022-08-11T07:05:37;94075.44;;;28.98
64470;BMP280;50854;48.538;14.352;2022-08-11T07:12:20;94134.13;;;28.34
64470;BMP280;50854;48.538;14.352;2022-08-11T07:13:45;94113.50;;;28.94
64470;BMP280;50854;48.538;14.352;2022-08-11T07:15:08;94112.00;;;29.11
64470;BMP280;50854;48.538;14.352;2022-08-11T07:16:47;94105.84;;;29.52
64470;BMP280;50854;48.538;14.352;2022-08-11T07:17:51;94107.81;;;29.69
64470;BMP280;50854;48.538;14.352;2022-08-11T07:19:14;94125.81;;;29.46
64470;BMP280;50854;48.538;14.352;2022-08-11T07:20:37;94130.38;;;29.18
64470;BMP280;50854;48.538;14.352;2022-08-11T07:21:59;94109.00;;;29.84
64470;BMP280;50854;48.538;14.352;2022-08-11T07:23:21;94114.97;;;30.17
64470;BMP280;50854;48.538;14.352;2022-08-11T07:24:43;94107.03;;;30.53
64470;BMP280;50854;48.538;14.352;2022-08-11T07:26:05;94110.28;;;30.46
64470;BMP280;50854;48.538;14.352;2022-08-11T07:27:29;94114.88;;;31.09
64470;BMP280;50854;48.538;14.352;2022-08-11T07:28:49;94116.53;;;31.69
64470;BMP280;50854;48.538;14.352;2022-08-11T07:30:00;94128.28;;;32.21
64470;BMP280;50854;48.538;14.352;2022-08-11T07:31:07;94133.41;;;32.63
64470;BMP280;50854;48.538;14.352;2022-08-11T07:32:21;94181.56;;;32.87
64470;BMP280;50854;48.538;14.352;2022-08-11T07:33:30;94185.44;;;32.74
64470;BMP280;50854;48.538;14.352;2022-08-11T07:34:35;94178.00;;;33.19
64470;BMP280;50854;48.538;14.352;2022-08-11T07:35:41;94186.53;;;33.25
64470;BMP280;50854;48.538;14.352;2022-08-11T07:36:48;94205.63;;;32.39
64470;BMP280;50854;48.538;14.352;2022-08-11T07:38:02;94200.28;;;32.49
64470;BMP280;50854;48.538;14.352;2022-08-11T07:39:03;94202.94;;;31.87
64470;BMP280;50854;48.538;14.352;2022-08-11T07:40:08;94203.47;;;31.79
64470;BMP280;50854;48.538;14.352;2022-08-11T07:41:16;94204.13;;;31.52
64470;BMP280;50854;48.538;14.352;2022-08-11T07:42:21;94203.66;;;31.62
64470;BMP280;50854;48.538;14.352;2022-08-11T07:43:22;94212.47;;;31.26
64470;BMP280;50854;48.538;14.352;2022-08-11T07:44:25;94212.09;;;30.90
64470;BMP280;50854;48.538;14.352;2022-08-11T07:45:29;94206.91;;;31.28
64470;BMP280;50854;48.538;14.352;2022-08-11T07:46:49;94191.28;;;31.69
64470;BMP280;50854;48.538;14.352;2022-08-11T07:48:11;94188.59;;;32.28
64470;BMP280;50854;48.538;14.352;2022-08-11T07:49:33;94192.78;;;32.28
64470;BMP280;50854;48.538;14.352;2022-08-11T07:50:53;94210.50;;;31.57
64470;BMP280;50854;48.538;14.352;2022-08-11T07:52:13;94201.28;;;31.26
64470;BMP280;50854;48.538;14.352;2022-08-11T07:53:27;94215.28;;;30.37
64470;BMP280;50854;48.538;14.352;2022-08-11T07:54:29;94217.16;;;29.69
64470;BMP280;50854;48.538;14.352;2022-08-11T07:55:30;94218.84;;;28.84
64470;BMP280;50854;48.538;14.352;2022-08-11T07:56:32;94212.13;;;28.20
64470;BMP280;50854;48.538;14.352;2022-08-11T07:57:33;94227.47;;;28.05
64470;BMP280;50854;48.538;14.352;2022-08-11T07:58:53;94222.06;;;27.44
64470;BMP280;50854;48.538;14.352;2022-08-11T08:00:13;94233.44;;;27.51
64470;BMP280;50854;48.538;14.352;2022-08-11T08:01:32;94239.69;;;27.35
64470;BMP280;50854;48.538;14.352;2022-08-11T08:02:52;94225.66;;;27.02
64470;BMP280;50854;48.538;14.352;2022-08-11T08:04:14;94211.56;;;27.74
64470;BMP280;50854;48.538;14.352;2022-08-11T08:05:36;94200.81;;;27.35
64470;BMP280;50854;48.538;14.352;2022-08-11T08:06:56;94210.84;;;27.58
64470;BMP280;50854;48.538;14.352;2022-08-11T08:08:15;94225.31;;;27.10
64470;BMP280;50854;48.538;14.352;2022-08-11T08:09:35;94190.56;;;27.09
64470;BMP280;50854;48.538;14.352;2022-08-11T08:10:55;94217.72;;;26.81
64470;BMP280;50854;48.538;14.352;2022-08-11T08:12:15;94228.63;;;27.06
64470;BMP280;50854;48.538;14.352;2022-08-11T08:13:34;94213.25;;;27.34
64470;BMP280;50854;48.538;14.352;2022-08-11T08:14:54;94194.13;;;27.11
64470;BMP280;50854;48.538;14.352;2022-08-11T08:16:14;94221.69;;;26.62
64470;BMP280;50854;48.538;14.352;2022-08-11T08:17:34;94193.25;;;26.91
64470;BMP280;50854;48.538;14.352;2022-08-11T08:18:51;94224.88;;;27.15
64470;BMP280;50854;48.538;14.352;2022-08-11T08:19:52;94191.50;;;27.13
64470;BMP280;50854;48.538;14.352;2022-08-11T08:20:55;94229.06;;;26.57
64470;BMP280;50854;48.538;14.352;2022-08-11T08:22:12;94221.38;;;27.15
64470;BMP280;50854;48.538;14.352;2022-08-11T08:23:15;94200.91;;;27.53
64470;BMP280;50854;48.538;14.352;2022-08-11T08:24:17;94199.59;;;27.54
64470;BMP280;50854;48.538;14.352;2022-08-11T08:25:19;94199.06;;;28.07
64470;BMP280;50854;48.538;14.352;2022-08-11T08:26:19;94179.22;;;27.81
64470;BMP280;50854;48.538;14.352;2022-08-11T08:27:39;94193.81;;;27.81
64470;BMP280;50854;48.538;14.352;2022-08-11T08:28:43;94181.59;;;28.04
64470;BMP280;50854;48.538;14.352;2022-08-11T08:29:46;94171.94;;;28.41
64470;BMP280;50854;48.538;14.352;2022-08-11T08:31:06;94182.06;;;28.50
64470;BMP280;50854;48.538;14.352;2022-08-11T08:32:07;94187.69;;;28.70
64470;BMP280;50854;48.538;14.352;2022-08-11T08:33:17;94184.84;;;28.50
64470;BMP280;50854;48.538;14.352;2022-08-11T08:34:19;94206.03;;;28.08
64470;BMP280;50854;48.538;14.352;2022-08-11T08:35:19;94214.09;;;28.17
64470;BMP280;50854;48.538;14.352;2022-08-11T08:36:21;94187.06;;;28.36
64470;BMP280;50854;48.538;14.352;2022-08-11T08:37:24;94171.03;;;28.18
64470;BMP280;50854;48.538;14.352;2022-08-11T08:38:26;94184.41;;;27.73
64470;BMP280;50854;48.538;14.352;2022-08-11T08:39:26;94189.34;;;27.27
64470;BMP280;50854;48.538;14.352;2022-08-11T08:40:27;94209.47;;;27.12
64470;BMP280;50854;48.538;14.352;2022-08-11T08:41:29;94208.06;;;26.82
64470;BMP280;50854;48.538;14.352;2022-08-11T08:42:38;94206.09;;;26.55
64470;BMP280;50854;48.538;14.352;2022-08-11T08:43:42;94198.81;;;26.77
64470;BMP280;50854;48.538;14.352;2022-08-11T08:44:47;94202.16;;;26.89
64470;BMP280;50854;48.538;14.352;2022-08-11T08:45:54;94202.31;;;26.78
64470;BMP280;50854;48.538;14.352;2022-08-11T08:46:57;94194.56;;;26.90
64470;BMP280;50854;48.538;14.352;2022-08-11T08:47:59;94200.53;;;26.84
64470;BMP280;50854;48.538;14.352;2022-08-11T08:49:01;94185.44;;;27.17
64470;BMP280;50854;48.538;14.352;2022-08-11T08:50:07;94203.22;;;27.12
64470;BMP280;50854;48.538;14.352;2022-08-11T08:51:11;94180.72;;;27.21
64470;BMP280;50854;48.538;14.352;2022-08-11T08:52:36;94200.34;;;27.10
64470;BMP280;50854;48.538;14.352;2022-08-11T08:53:45;94184.47;;;26.96
64470;BMP280;50854;48.538;14.352;2022-08-11T08:54:51;94184.81;;;26.59
64470;BMP280;50854;48.538;14.352;2022-08-11T08:55:54;94209.94;;;26.63
64470;BMP280;50854;48.538;14.352;2022-08-11T08:56:56;94196.84;;;26.50
64470;BMP280;50854;48.538;14.352;2022-08-11T08:57:57;94209.78;;;26.59
64470;BMP280;50854;48.538;14.352;2022-08-11T08:59:03;94218.66;;;25.87
64470;BMP280;50854;48.538;14.352;2022-08-11T09:00:06;94216.63;;;25.88
64470;BMP280;50854;48.538;14.352;2022-08-11T09:01:09;94210.03;;;25.81
64470;BMP280;50854;48.538;14.352;2022-08-11T09:02:10;94225.41;;;25.84
64470;BMP280;50854;48.538;14.352;2022-08-11T09:03:12;94191.88;;;25.65
64470;BMP280;50854;48.538;14.352;2022-08-11T09:04:14;94182.56;;;25.19
64470;BMP280;50854;48.538;14.352;2022-08-11T09:05:15;94198.31;;;25.16
64470;BMP280;50854;48.538;14.352;2022-08-11T09:06:16;94218.75;;;24.98
64470;BMP280;50854;48.538;14.352;2022-08-11T09:07:17;94198.06;;;24.62
64470;BMP280;50854;48.538;14.352;2022-08-11T09:08:20;94183.22;;;24.43
64470;BMP280;50854;48.538;14.352;2022-08-11T09:09:21;94200.59;;;24.09
64470;BMP280;50854;48.538;14.352;2022-08-11T09:10:23;94220.75;;;24.12
64470;BMP280;50854;48.538;14.352;2022-08-11T09:11:24;94202.16;;;24.12
64470;BMP280;50854;48.538;14.352;2022-08-11T09:12:43;94197.00;;;24.06
64470;BMP280;50854;48.538;14.352;2022-08-11T09:13:45;94180.53;;;24.20
64470;BMP280;50854;48.538;14.352;2022-08-11T09:14:48;94188.56;;;24.04
64470;BMP280;50854;48.538;14.352;2022-08-11T09:16:05;94201.28;;;24.21
64470;BMP280;50854;48.538;14.352;2022-08-11T09:17:05;94202.25;;;24.37
64470;BMP280;50854;48.538;14.352;2022-08-11T09:18:06;94189.56;;;24.58
64470;BMP280;50854;48.538;14.352;2022-08-11T09:19:08;94170.03;;;24.42
64470;BMP280;50854;48.538;14.352;2022-08-11T09:20:20;94181.47;;;24.62
64470;BMP280;50854;48.538;14.352;2022-08-11T09:21:23;94189.97;;;24.77
64470;BMP280;50854;48.538;14.352;2022-08-11T09:22:25;94196.09;;;24.76
64470;BMP280;50854;48.538;14.352;2022-08-11T09:23:45;94175.44;;;24.77
64470;BMP280;50854;48.538;14.352;2022-08-11T09:25:05;94171.22;;;24.76
64470;BMP280;50854;48.538;14.352;2022-08-11T09:26:25;94169.44;;;24.32
64470;BMP280;50854;48.538;14.352;2022-08-11T09:27:44;94189.16;;;24.38
64470;BMP280;50854;48.538;14.352;2022-08-11T09:28:46;94200.69;;;24.34
64470;BMP280;50854;48.538;14.352;2022-08-11T09:29:49;94195.63;;;24.42
64470;BMP280;50854;48.538;14.352;2022-08-11T09:30:51;94204.50;;;24.53
64470;BMP280;50854;48.538;14.352;2022-08-11T09:31:55;94170.34;;;24.60
64470;BMP280;50854;48.538;14.352;2022-08-11T09:32:58;94181.59;;;24.64
64470;BMP280;50854;48.538;14.352;2022-08-11T09:34:00;94164.47;;;24.54
64470;BMP280;50854;48.538;14.352;2022-08-11T09:35:02;94158.38;;;24.43
64470;BMP280;50854;48.538;14.352;2022-08-11T09:36:04;94175.59;;;24.19
64470;BMP280;50854;48.538;14.352;2022-08-11T09:37:25;94150.78;;;23.60
64470;BMP280;50854;48.538;14.352;2022-08-11T09:38:44;94205.47;;;23.41
64470;BMP280;50854;48.538;14.352;2022-08-11T09:40:05;94167.81;;;23.57
64470;BMP280;50854;48.538;14.352;2022-08-11T09:41:25;94170.00;;;23.58
64470;BMP280;50854;48.538;14.352;2022-08-11T09:42:26;94166.88;;;23.76
64470;BMP280;50854;48.538;14.352;2022-08-11T09:43:46;94178.88;;;23.68
64470;BMP280;50854;48.538;14.352;2022-08-11T09:45:06;94159.81;;;23.84
64470;BMP280;50854;48.538;14.352;2022-08-11T09:46:07;94159.06;;;23.72
64470;BMP280;50854;48.538;14.352;2022-08-11T09:47:09;94158.59;;;23.64
64470;BMP280;50854;48.538;14.352;2022-08-11T09:48:14;94170.56;;;23.45
64470;BMP280;50854;48.538;14.352;2022-08-11T09:49:19;94155.47;;;23.46
64470;BMP280;50854;48.538;14.352;2022-08-11T09:50:21;94174.78;;;23.58
64470;BMP280;50854;48.538;14.352;2022-08-11T09:51:21;94175.63;;;23.60
64470;BMP280;50854;48.538;14.352;2022-08-11T09:52:23;94166.16;;;23.63
64470;BMP280;50854;48.538;14.352;2022-08-11T09:53:26;94152.50;;;23.65
64470;BMP280;50854;48.538;14.352;2022-08-11T09:54:27;94158.00;;;23.54
64470;BMP280;50854;48.538;14.352;2022-08-11T09:55:28;94154.13;;;23.35
64470;BMP280;50854;48.538;14.352;2022-08-11T09:56:28;94151.38;;;23.35
64470;BMP280;50854;48.538;14.352;2022-08-11T09:57:48;94177.44;;;23.44
64470;BMP280;50854;48.538;14.352;2022-08-11T09:59:08;94171.81;;;23.65
64470;BMP280;50854;48.538;14.352;2022-08-11T10:00:10;94166.88;;;23.52
64470;BMP280;50854;48.538;14.352;2022-08-11T10:01:13;94178.84;;;23.57
64470;BMP280;50854;48.538;14.352;2022-08-11T10:02:28;94163.88;;;23.60
64470;BMP280;50854;48.538;14.352;2022-08-11T10:03:30;94158.22;;;23.46
64470;BMP280;50854;48.538;14.352;2022-08-11T10:04:40;94151.50;;;23.38
64470;BMP280;50854;48.538;14.352;2022-08-11T10:06:02;94147.44;;;23.39
64470;BMP280;50854;48.538;14.352;2022-08-11T10:07:23;94186.25;;;23.31
64470;BMP280;50854;48.538;14.352;2022-08-11T10:08:28;94146.66;;;23.26
64470;BMP280;50854;48.538;14.352;2022-08-11T10:09:37;94166.41;;;23.56
64470;BMP280;50854;48.538;14.352;2022-08-11T10:10:39;94134.47;;;23.64
64470;BMP280;50854;48.538;14.352;2022-08-11T10:11:41;94149.84;;;23.91
64470;BMP280;50854;48.538;14.352;2022-08-11T10:12:48;94129.44;;;23.96
64470;BMP280;50854;48.538;14.352;2022-08-11T10:13:51;94173.84;;;23.77
64470;BMP280;50854;48.538;14.352;2022-08-11T10:15:15;94150.53;;;24.03
64470;BMP280;50854;48.538;14.352;2022-08-11T10:16:39;94120.88;;;24.40
64470;BMP280;50854;48.538;14.352;2022-08-11T10:17:43;94120.34;;;24.19
64470;BMP280;50854;48.538;14.352;2022-08-11T10:19:03;94119.06;;;24.08
64470;BMP280;50854;48.538;14.352;2022-08-11T10:20:05;94120.16;;;24.03
64470;BMP280;50854;48.538;14.352;2022-08-11T10:21:23;94149.84;;;23.79
64470;BMP280;50854;48.538;14.352;2022-08-11T10:22:28;94133.88;;;23.66
64470;BMP280;50854;48.538;14.352;2022-08-11T10:23:47;94119.03;;;23.59
64470;BMP280;50854;48.538;14.352;2022-08-11T10:25:07;94146.44;;;23.34
64470;BMP280;50854;48.538;14.352;2022-08-11T10:26:28;94149.94;;;23.34
64470;BMP280;50854;48.538;14.352;2022-08-11T10:27:47;94149.34;;;23.36
64470;BMP280;50854;48.538;14.352;2022-08-11T10:28:59;94150.78;;;23.37
64470;BMP280;50854;48.538;14.352;2022-08-11T10:30:00;94144.53;;;23.37
64470;BMP280;50854;48.538;14.352;2022-08-11T10:31:21;94141.66;;;23.46
64470;BMP280;50854;48.538;14.352;2022-08-11T10:32:41;94120.56;;;23.39
64470;BMP280;50854;48.538;14.352;2022-08-11T10:34:01;94146.22;;;23.30
64470;BMP280;50854;48.538;14.352;2022-08-11T10:35:05;94123.44;;;23.29
64470;BMP280;50854;48.538;14.352;2022-08-11T10:36:08;94121.28;;;23.28
64470;BMP280;50854;48.538;14.352;2022-08-11T10:37:09;94115.41;;;23.45
64470;BMP280;50854;48.538;14.352;2022-08-11T10:38:12;94132.81;;;23.59
64470;BMP280;50854;48.538;14.352;2022-08-11T10:39:17;94135.34;;;23.55
64470;BMP280;50854;48.538;14.352;2022-08-11T10:40:21;94117.00;;;23.48
64470;BMP280;50854;48.538;14.352;2022-08-11T10:41:22;94133.03;;;23.40